RYR198 LOWW-EYVI
Flight info
| Callsign | RYR198 |
|---|---|
| Flight time | 1h 33m |
| Altitude | 37000 |
| Route | LEDVA DCT KATQA DCT UPLAV DCT BAVOK DCT UNPEG DCT OFEDE DCT LIZUP DCT DIMTA |
| Aircraft | B738/M-SDE2E3FGHIRWXY/LB1 |
Departure
| Time | 2026-04-30 20:48 |
|---|---|
| Airport | Vienna International Airport (LOWW) |
Arrival
| Time | 2026-04-30 22:21 |
|---|---|
| Airport | Vilnius International Airport (EYVI) |
| Time | Latitude | Longitude | Altitude | Speed | Heading |
|---|---|---|---|---|---|
| 2026-04-30 20:26 | 48.11926 | 16.55633 | 607 ft | 0 kts | 25° |
| 2026-04-30 20:27 | 48.11926 | 16.55632 | 607 ft | 0 kts | 26° |
| 2026-04-30 20:41 | 48.11924 | 16.55631 | 607 ft | 2 kts | 26° |
| 2026-04-30 20:41 | 48.11901 | 16.55613 | 617 ft | 4 kts | 28° |
| 2026-04-30 20:41 | 48.11878 | 16.55592 | 622 ft | 4 kts | 39° |
| 2026-04-30 20:41 | 48.11862 | 16.55565 | 622 ft | 4 kts | 85° |
| 2026-04-30 20:42 | 48.11862 | 16.55552 | 620 ft | 0 kts | 116° |
| 2026-04-30 20:43 | 48.11861 | 16.55555 | 619 ft | 2 kts | 116° |
| 2026-04-30 20:44 | 48.11805 | 16.55724 | 610 ft | 17 kts | 119° |
| 2026-04-30 20:44 | 48.11746 | 16.55908 | 616 ft | 21 kts | 115° |
| 2026-04-30 20:44 | 48.11622 | 16.56290 | 615 ft | 20 kts | 116° |
| 2026-04-30 20:45 | 48.11504 | 16.56649 | 612 ft | 19 kts | 116° |
| 2026-04-30 20:45 | 48.11447 | 16.56810 | 617 ft | 16 kts | 135° |
| 2026-04-30 20:45 | 48.11367 | 16.56802 | 607 ft | 10 kts | 207° |
| 2026-04-30 20:46 | 48.11290 | 16.56551 | 607 ft | 9 kts | 256° |
| 2026-04-30 20:46 | 48.11257 | 16.56476 | 612 ft | 5 kts | 278° |
| 2026-04-30 20:47 | 48.11479 | 16.55801 | 618 ft | 103 kts | 296° |
| 2026-04-30 20:47 | 48.11872 | 16.54582 | 624 ft | 150 kts | 298° |
| 2026-04-30 20:48 | 48.12632 | 16.51445 | 1775 ft | 177 kts | 267° |
| 2026-04-30 20:48 | 48.12271 | 16.49606 | 2340 ft | 205 kts | 254° |
| 2026-04-30 20:48 | 48.11762 | 16.47382 | 2701 ft | 238 kts | 254° |
| 2026-04-30 20:48 | 48.11613 | 16.44926 | 3381 ft | 241 kts | 283° |
| 2026-04-30 20:49 | 48.11955 | 16.42382 | 3997 ft | 258 kts | 285° |
| 2026-04-30 20:49 | 48.12299 | 16.39693 | 5024 ft | 264 kts | 283° |
| 2026-04-30 20:49 | 48.12621 | 16.36979 | 6171 ft | 266 kts | 283° |
| 2026-04-30 20:50 | 48.13986 | 16.31943 | 8109 ft | 267 kts | 326° |
| 2026-04-30 20:50 | 48.15669 | 16.30879 | 9085 ft | 264 kts | 355° |
| 2026-04-30 20:50 | 48.17499 | 16.30980 | 10106 ft | 265 kts | 15° |
| 2026-04-30 20:50 | 48.19244 | 16.32033 | 10719 ft | 283 kts | 28° |
| 2026-04-30 20:51 | 48.21058 | 16.33548 | 10960 ft | 312 kts | 31° |
| 2026-04-30 20:51 | 48.24908 | 16.36965 | 12625 ft | 325 kts | 31° |
| 2026-04-30 20:51 | 48.26857 | 16.38688 | 13638 ft | 326 kts | 31° |
| 2026-04-30 20:52 | 48.28824 | 16.40417 | 14572 ft | 329 kts | 31° |
| 2026-04-30 20:52 | 48.30809 | 16.42151 | 15437 ft | 331 kts | 31° |
| 2026-04-30 20:52 | 48.34823 | 16.45641 | 17174 ft | 336 kts | 31° |
| 2026-04-30 20:53 | 48.36855 | 16.47404 | 18053 ft | 338 kts | 31° |
| 2026-04-30 20:53 | 48.38903 | 16.49181 | 18874 ft | 341 kts | 31° |
| 2026-04-30 20:53 | 48.40961 | 16.50968 | 19602 ft | 343 kts | 31° |
| 2026-04-30 20:54 | 48.45113 | 16.54575 | 21111 ft | 346 kts | 32° |
| 2026-04-30 20:54 | 48.47203 | 16.56394 | 21849 ft | 348 kts | 32° |
| 2026-04-30 20:54 | 48.49304 | 16.58224 | 22564 ft | 350 kts | 32° |
| 2026-04-30 20:55 | 48.53548 | 16.61926 | 23933 ft | 355 kts | 32° |
| 2026-04-30 20:55 | 48.55685 | 16.63793 | 24552 ft | 355 kts | 32° |
| 2026-04-30 20:55 | 48.57824 | 16.65663 | 25140 ft | 356 kts | 32° |
| 2026-04-30 20:56 | 48.62132 | 16.69436 | 26208 ft | 360 kts | 33° |
| 2026-04-30 20:56 | 48.64303 | 16.71340 | 26742 ft | 361 kts | 33° |
| 2026-04-30 20:56 | 48.68640 | 16.75149 | 27747 ft | 365 kts | 33° |
| 2026-04-30 20:57 | 48.70847 | 16.77092 | 28211 ft | 368 kts | 33° |
| 2026-04-30 20:57 | 48.72972 | 16.79260 | 28646 ft | 369 kts | 39° |
| 2026-04-30 20:57 | 48.74885 | 16.81855 | 29138 ft | 369 kts | 46° |
| 2026-04-30 20:58 | 48.78473 | 16.87453 | 30104 ft | 371 kts | 46° |
| 2026-04-30 20:58 | 48.80263 | 16.90251 | 30693 ft | 368 kts | 46° |
| 2026-04-30 20:58 | 48.82043 | 16.93027 | 31136 ft | 368 kts | 46° |
| 2026-04-30 20:58 | 48.83837 | 16.95821 | 31446 ft | 371 kts | 46° |
| 2026-04-30 20:59 | 48.87449 | 17.01444 | 32213 ft | 372 kts | 45° |
| 2026-04-30 20:59 | 48.89257 | 17.04259 | 32600 ft | 373 kts | 45° |
| 2026-04-30 21:00 | 48.92888 | 17.09924 | 33408 ft | 372 kts | 45° |
| 2026-04-30 21:00 | 48.96479 | 17.15539 | 34248 ft | 372 kts | 45° |
| 2026-04-30 21:01 | 49.00112 | 17.21231 | 34794 ft | 376 kts | 45° |
| 2026-04-30 21:01 | 49.02015 | 17.23970 | 35057 ft | 378 kts | 39° |
| 2026-04-30 21:01 | 49.06412 | 17.28419 | 35589 ft | 381 kts | 32° |
| 2026-04-30 21:02 | 49.08684 | 17.30523 | 35848 ft | 383 kts | 32° |
| 2026-04-30 21:02 | 49.10965 | 17.32643 | 36100 ft | 384 kts | 32° |
| 2026-04-30 21:02 | 49.13243 | 17.34772 | 36429 ft | 384 kts | 32° |
| 2026-04-30 21:02 | 49.15523 | 17.36913 | 36676 ft | 386 kts | 32° |
| 2026-04-30 21:03 | 49.17817 | 17.39074 | 36885 ft | 389 kts | 32° |
| 2026-04-30 21:03 | 49.20091 | 17.41222 | 37123 ft | 390 kts | 32° |
| 2026-04-30 21:03 | 49.22431 | 17.43436 | 37393 ft | 391 kts | 32° |
| 2026-04-30 21:04 | 49.27111 | 17.47870 | 37402 ft | 397 kts | 32° |
| 2026-04-30 21:04 | 49.34041 | 17.54462 | 37403 ft | 383 kts | 33° |
| 2026-04-30 21:05 | 49.38502 | 17.58772 | 37411 ft | 380 kts | 33° |
| 2026-04-30 21:05 | 49.42966 | 17.63103 | 37411 ft | 379 kts | 33° |
| 2026-04-30 21:06 | 49.47423 | 17.67434 | 37412 ft | 380 kts | 33° |
| 2026-04-30 21:06 | 49.51896 | 17.71786 | 37404 ft | 381 kts | 33° |
| 2026-04-30 21:07 | 49.56386 | 17.76164 | 37405 ft | 383 kts | 33° |
| 2026-04-30 21:07 | 49.60890 | 17.80565 | 37413 ft | 384 kts | 33° |
| 2026-04-30 21:08 | 49.65405 | 17.84986 | 37402 ft | 385 kts | 33° |
| 2026-04-30 21:08 | 49.69911 | 17.89409 | 37397 ft | 385 kts | 33° |
| 2026-04-30 21:09 | 49.74436 | 17.93858 | 37399 ft | 386 kts | 33° |
| 2026-04-30 21:09 | 49.78961 | 17.98314 | 37395 ft | 385 kts | 33° |
| 2026-04-30 21:10 | 49.83479 | 18.02775 | 37402 ft | 385 kts | 33° |
| 2026-04-30 21:10 | 49.87975 | 18.07237 | 37400 ft | 384 kts | 33° |
| 2026-04-30 21:11 | 49.92484 | 18.11715 | 37389 ft | 384 kts | 33° |
| 2026-04-30 21:11 | 49.96974 | 18.16181 | 37408 ft | 383 kts | 33° |
| 2026-04-30 21:12 | 50.01401 | 18.20770 | 37404 ft | 382 kts | 38° |
| 2026-04-30 21:12 | 50.05566 | 18.25876 | 37408 ft | 381 kts | 38° |
| 2026-04-30 21:13 | 50.09703 | 18.31031 | 37401 ft | 381 kts | 38° |
| 2026-04-30 21:13 | 50.13836 | 18.36174 | 37412 ft | 380 kts | 38° |
| 2026-04-30 21:14 | 50.17974 | 18.41314 | 37402 ft | 380 kts | 38° |
| 2026-04-30 21:14 | 50.22104 | 18.46448 | 37407 ft | 379 kts | 38° |
| 2026-04-30 21:15 | 50.26228 | 18.51584 | 37402 ft | 379 kts | 38° |
| 2026-04-30 21:15 | 50.30349 | 18.56727 | 37409 ft | 379 kts | 38° |
| 2026-04-30 21:16 | 50.34437 | 18.61841 | 37406 ft | 379 kts | 38° |
| 2026-04-30 21:16 | 50.38546 | 18.66992 | 37402 ft | 378 kts | 38° |
| 2026-04-30 21:17 | 50.42647 | 18.72146 | 37397 ft | 378 kts | 38° |
| 2026-04-30 21:17 | 50.46745 | 18.77307 | 37398 ft | 377 kts | 38° |
| 2026-04-30 21:18 | 50.50838 | 18.82474 | 37408 ft | 377 kts | 38° |
| 2026-04-30 21:18 | 50.54920 | 18.87640 | 37401 ft | 377 kts | 38° |
| 2026-04-30 21:19 | 50.58999 | 18.92812 | 37426 ft | 376 kts | 38° |
| 2026-04-30 21:19 | 50.63073 | 18.97991 | 37407 ft | 377 kts | 38° |
| 2026-04-30 21:20 | 50.67153 | 19.03188 | 37397 ft | 377 kts | 38° |
| 2026-04-30 21:20 | 50.71228 | 19.08392 | 37395 ft | 377 kts | 38° |
| 2026-04-30 21:21 | 50.75301 | 19.13605 | 37395 ft | 377 kts | 38° |
| 2026-04-30 21:22 | 50.81409 | 19.21446 | 37397 ft | 377 kts | 38° |
| 2026-04-30 21:23 | 50.89536 | 19.31919 | 37396 ft | 377 kts | 38° |
| 2026-04-30 21:23 | 50.94932 | 19.38901 | 37392 ft | 376 kts | 38° |
| 2026-04-30 21:24 | 50.99636 | 19.45005 | 37393 ft | 376 kts | 38° |
| 2026-04-30 21:24 | 51.03675 | 19.50259 | 37406 ft | 375 kts | 38° |
| 2026-04-30 21:25 | 51.09071 | 19.57297 | 37406 ft | 375 kts | 38° |
| 2026-04-30 21:26 | 51.15115 | 19.65207 | 37390 ft | 375 kts | 38° |
| 2026-04-30 21:27 | 51.21121 | 19.73094 | 37385 ft | 375 kts | 38° |
| 2026-04-30 21:27 | 51.25165 | 19.78421 | 37398 ft | 375 kts | 39° |
| 2026-04-30 21:28 | 51.31165 | 19.86346 | 37393 ft | 375 kts | 39° |
| 2026-04-30 21:29 | 51.37185 | 19.94328 | 37385 ft | 375 kts | 39° |
| 2026-04-30 21:30 | 51.47204 | 20.07671 | 37389 ft | 375 kts | 39° |
| 2026-04-30 21:31 | 51.57212 | 20.21081 | 37387 ft | 375 kts | 39° |
| 2026-04-30 21:32 | 51.63203 | 20.29146 | 37382 ft | 374 kts | 39° |
| 2026-04-30 21:32 | 51.67199 | 20.34540 | 37380 ft | 374 kts | 39° |
| 2026-04-30 21:33 | 51.73174 | 20.42632 | 37379 ft | 374 kts | 39° |
| 2026-04-30 21:34 | 51.77152 | 20.48036 | 37379 ft | 374 kts | 39° |
| 2026-04-30 21:34 | 51.83115 | 20.56159 | 37379 ft | 374 kts | 39° |
| 2026-04-30 21:35 | 51.87092 | 20.61592 | 37382 ft | 374 kts | 39° |
| 2026-04-30 21:35 | 51.91061 | 20.67029 | 37378 ft | 374 kts | 39° |
| 2026-04-30 21:36 | 51.95029 | 20.72476 | 37380 ft | 374 kts | 39° |
| 2026-04-30 21:37 | 52.02970 | 20.83418 | 37376 ft | 375 kts | 39° |
| 2026-04-30 21:37 | 52.06917 | 20.88876 | 37374 ft | 375 kts | 39° |
| 2026-04-30 21:38 | 52.10889 | 20.94384 | 37375 ft | 375 kts | 39° |
| 2026-04-30 21:38 | 52.14857 | 20.99898 | 37374 ft | 375 kts | 39° |
| 2026-04-30 21:39 | 52.18828 | 21.05429 | 37374 ft | 375 kts | 39° |
| 2026-04-30 21:39 | 52.22794 | 21.10968 | 37377 ft | 375 kts | 39° |
| 2026-04-30 21:40 | 52.26757 | 21.16514 | 37374 ft | 375 kts | 39° |
| 2026-04-30 21:40 | 52.30714 | 21.22067 | 37372 ft | 375 kts | 39° |
| 2026-04-30 21:41 | 52.34668 | 21.27630 | 37372 ft | 375 kts | 39° |
| 2026-04-30 21:41 | 52.38618 | 21.33202 | 37382 ft | 375 kts | 39° |
| 2026-04-30 21:42 | 52.42478 | 21.38886 | 37366 ft | 375 kts | 40° |
| 2026-04-30 21:42 | 52.46350 | 21.44705 | 37367 ft | 375 kts | 40° |
| 2026-04-30 21:43 | 52.50175 | 21.50452 | 37367 ft | 375 kts | 40° |
| 2026-04-30 21:43 | 52.54049 | 21.56270 | 37363 ft | 375 kts | 40° |
| 2026-04-30 21:44 | 52.57896 | 21.62055 | 37367 ft | 375 kts | 40° |
| 2026-04-30 21:44 | 52.61711 | 21.67802 | 37367 ft | 375 kts | 40° |
| 2026-04-30 21:45 | 52.65551 | 21.73601 | 37367 ft | 375 kts | 40° |
| 2026-04-30 21:45 | 52.69390 | 21.79412 | 37363 ft | 375 kts | 40° |
| 2026-04-30 21:46 | 52.73222 | 21.85229 | 37362 ft | 375 kts | 40° |
| 2026-04-30 21:46 | 52.77059 | 21.91066 | 37362 ft | 375 kts | 40° |
| 2026-04-30 21:47 | 52.80892 | 21.96914 | 37363 ft | 375 kts | 41° |
| 2026-04-30 21:47 | 52.84724 | 22.02773 | 37362 ft | 375 kts | 41° |
| 2026-04-30 21:48 | 52.88554 | 22.08644 | 37360 ft | 375 kts | 41° |
| 2026-04-30 21:48 | 52.92381 | 22.14527 | 37362 ft | 375 kts | 41° |
| 2026-04-30 21:49 | 52.96205 | 22.20418 | 37362 ft | 375 kts | 41° |
| 2026-04-30 21:49 | 53.00029 | 22.26325 | 37361 ft | 375 kts | 41° |
| 2026-04-30 21:50 | 53.03849 | 22.32241 | 37362 ft | 375 kts | 41° |
| 2026-04-30 21:50 | 53.07638 | 22.38123 | 37358 ft | 375 kts | 41° |
| 2026-04-30 21:51 | 53.11452 | 22.44060 | 37361 ft | 376 kts | 41° |
| 2026-04-30 21:51 | 53.15262 | 22.50005 | 37383 ft | 376 kts | 41° |
| 2026-04-30 21:52 | 53.19079 | 22.55977 | 37363 ft | 376 kts | 41° |
| 2026-04-30 21:52 | 53.22886 | 22.61948 | 37356 ft | 375 kts | 41° |
| 2026-04-30 21:53 | 53.24774 | 22.64917 | 37198 ft | 371 kts | 41° |
| 2026-04-30 21:53 | 53.26630 | 22.67838 | 36978 ft | 361 kts | 41° |
| 2026-04-30 21:53 | 53.30269 | 22.73576 | 37012 ft | 365 kts | 41° |
| 2026-04-30 21:54 | 53.34029 | 22.79510 | 37029 ft | 377 kts | 41° |
| 2026-04-30 21:54 | 53.37847 | 22.85560 | 37023 ft | 377 kts | 41° |
| 2026-04-30 21:55 | 53.41642 | 22.91591 | 37016 ft | 376 kts | 41° |
| 2026-04-30 21:55 | 53.45422 | 22.97614 | 36646 ft | 370 kts | 41° |
| 2026-04-30 21:56 | 53.47272 | 23.00568 | 36403 ft | 366 kts | 41° |
| 2026-04-30 21:56 | 53.49087 | 23.03468 | 36153 ft | 363 kts | 41° |
| 2026-04-30 21:56 | 53.50914 | 23.06390 | 35898 ft | 362 kts | 41° |
| 2026-04-30 21:56 | 53.52732 | 23.09302 | 35556 ft | 360 kts | 41° |
| 2026-04-30 21:57 | 53.54538 | 23.12198 | 35026 ft | 357 kts | 41° |
| 2026-04-30 21:57 | 53.56352 | 23.15112 | 34454 ft | 355 kts | 41° |
| 2026-04-30 21:57 | 53.58106 | 23.17932 | 33801 ft | 353 kts | 41° |
| 2026-04-30 21:57 | 53.59766 | 23.20985 | 33037 ft | 356 kts | 47° |
| 2026-04-30 21:58 | 53.61283 | 23.24304 | 32164 ft | 359 kts | 48° |
| 2026-04-30 21:58 | 53.62802 | 23.27669 | 31258 ft | 363 kts | 49° |
| 2026-04-30 21:58 | 53.64334 | 23.31067 | 30446 ft | 364 kts | 49° |
| 2026-04-30 21:58 | 53.65856 | 23.34442 | 29803 ft | 359 kts | 49° |
| 2026-04-30 21:59 | 53.67360 | 23.37775 | 29191 ft | 354 kts | 49° |
| 2026-04-30 21:59 | 53.68846 | 23.41062 | 28521 ft | 351 kts | 48° |
| 2026-04-30 21:59 | 53.70320 | 23.44318 | 27841 ft | 348 kts | 48° |
| 2026-04-30 22:00 | 53.73243 | 23.50774 | 26549 ft | 343 kts | 48° |
| 2026-04-30 22:00 | 53.76119 | 23.57138 | 25365 ft | 338 kts | 48° |
| 2026-04-30 22:00 | 53.77543 | 23.60294 | 24636 ft | 338 kts | 48° |
| 2026-04-30 22:01 | 53.78994 | 23.63506 | 23499 ft | 349 kts | 48° |
| 2026-04-30 22:01 | 53.80487 | 23.66811 | 22193 ft | 358 kts | 49° |
| 2026-04-30 22:01 | 53.82012 | 23.70196 | 20955 ft | 365 kts | 49° |
| 2026-04-30 22:01 | 53.83564 | 23.73650 | 19817 ft | 372 kts | 49° |
| 2026-04-30 22:02 | 53.85088 | 23.77059 | 19593 ft | 354 kts | 50° |
| 2026-04-30 22:02 | 53.86545 | 23.80329 | 19249 ft | 342 kts | 50° |
| 2026-04-30 22:02 | 53.87960 | 23.83503 | 18818 ft | 334 kts | 50° |
| 2026-04-30 22:02 | 53.89350 | 23.86620 | 18325 ft | 328 kts | 50° |
| 2026-04-30 22:03 | 53.90696 | 23.89639 | 17866 ft | 322 kts | 49° |
| 2026-04-30 22:03 | 53.92033 | 23.92643 | 17419 ft | 316 kts | 49° |
| 2026-04-30 22:03 | 53.93348 | 23.95598 | 16982 ft | 311 kts | 49° |
| 2026-04-30 22:03 | 53.94642 | 23.98509 | 16549 ft | 307 kts | 49° |
| 2026-04-30 22:04 | 53.95918 | 24.01382 | 16114 ft | 303 kts | 49° |
| 2026-04-30 22:04 | 53.97178 | 24.04224 | 15695 ft | 300 kts | 49° |
| 2026-04-30 22:04 | 53.99687 | 24.09885 | 14863 ft | 301 kts | 49° |
| 2026-04-30 22:05 | 54.00954 | 24.12748 | 14451 ft | 308 kts | 49° |
| 2026-04-30 22:05 | 54.02257 | 24.15692 | 14009 ft | 315 kts | 49° |
| 2026-04-30 22:05 | 54.03570 | 24.18670 | 13511 ft | 313 kts | 49° |
| 2026-04-30 22:05 | 54.04857 | 24.21596 | 13056 ft | 309 kts | 49° |
| 2026-04-30 22:06 | 54.06002 | 24.24204 | 12652 ft | 305 kts | 49° |
| 2026-04-30 22:06 | 54.07854 | 24.28425 | 12024 ft | 299 kts | 49° |
| 2026-04-30 22:06 | 54.09092 | 24.31250 | 11613 ft | 296 kts | 49° |
| 2026-04-30 22:07 | 54.10318 | 24.34048 | 11198 ft | 294 kts | 49° |
| 2026-04-30 22:07 | 54.11521 | 24.36800 | 11031 ft | 284 kts | 49° |
| 2026-04-30 22:07 | 54.12692 | 24.39481 | 10889 ft | 280 kts | 49° |
| 2026-04-30 22:07 | 54.13846 | 24.42125 | 10759 ft | 277 kts | 49° |
| 2026-04-30 22:08 | 54.14995 | 24.44757 | 10636 ft | 275 kts | 49° |
| 2026-04-30 22:08 | 54.16115 | 24.47329 | 10510 ft | 265 kts | 49° |
| 2026-04-30 22:08 | 54.17179 | 24.49778 | 10392 ft | 256 kts | 49° |
| 2026-04-30 22:08 | 54.18221 | 24.52177 | 10232 ft | 249 kts | 49° |
| 2026-04-30 22:09 | 54.19246 | 24.54532 | 9942 ft | 247 kts | 49° |
| 2026-04-30 22:09 | 54.19617 | 24.55385 | 9840 ft | 246 kts | 49° |
| 2026-04-30 22:09 | 54.20633 | 24.57724 | 9548 ft | 244 kts | 49° |
| 2026-04-30 22:09 | 54.21641 | 24.60049 | 9283 ft | 243 kts | 50° |
| 2026-04-30 22:10 | 54.22647 | 24.62370 | 8985 ft | 243 kts | 50° |
| 2026-04-30 22:10 | 54.23650 | 24.64685 | 8696 ft | 242 kts | 50° |
| 2026-04-30 22:10 | 54.24650 | 24.66996 | 8410 ft | 241 kts | 50° |
| 2026-04-30 22:10 | 54.25646 | 24.69301 | 8134 ft | 241 kts | 50° |
| 2026-04-30 22:11 | 54.27636 | 24.73913 | 7566 ft | 241 kts | 50° |
| 2026-04-30 22:11 | 54.28629 | 24.76218 | 7283 ft | 240 kts | 50° |
| 2026-04-30 22:11 | 54.29624 | 24.78529 | 6981 ft | 242 kts | 51° |
| 2026-04-30 22:12 | 54.30624 | 24.80852 | 6689 ft | 243 kts | 51° |
| 2026-04-30 22:12 | 54.31625 | 24.83184 | 6390 ft | 243 kts | 51° |
| 2026-04-30 22:12 | 54.32627 | 24.85520 | 6092 ft | 243 kts | 51° |
| 2026-04-30 22:12 | 54.33623 | 24.87846 | 5800 ft | 242 kts | 51° |
| 2026-04-30 22:13 | 54.34622 | 24.90178 | 5449 ft | 244 kts | 51° |
| 2026-04-30 22:13 | 54.35643 | 24.92562 | 4966 ft | 251 kts | 51° |
| 2026-04-30 22:13 | 54.36676 | 24.94978 | 4622 ft | 251 kts | 51° |
| 2026-04-30 22:13 | 54.37701 | 24.97381 | 4335 ft | 249 kts | 51° |
| 2026-04-30 22:14 | 54.38716 | 24.99769 | 4058 ft | 247 kts | 51° |
| 2026-04-30 22:14 | 54.39725 | 25.02141 | 3791 ft | 245 kts | 51° |
| 2026-04-30 22:14 | 54.40717 | 25.04473 | 3652 ft | 237 kts | 51° |
| 2026-04-30 22:14 | 54.41676 | 25.06724 | 3536 ft | 230 kts | 51° |
| 2026-04-30 22:15 | 54.42605 | 25.08902 | 3425 ft | 222 kts | 51° |
| 2026-04-30 22:15 | 54.43202 | 25.10307 | 3361 ft | 217 kts | 51° |
| 2026-04-30 22:15 | 54.44077 | 25.12368 | 3271 ft | 210 kts | 51° |
| 2026-04-30 22:15 | 54.44924 | 25.14365 | 3169 ft | 205 kts | 51° |
| 2026-04-30 22:16 | 54.45800 | 25.16270 | 3051 ft | 198 kts | 38° |
| 2026-04-30 22:16 | 54.46971 | 25.17272 | 2989 ft | 182 kts | 17° |
| 2026-04-30 22:17 | 54.50247 | 25.19470 | 2712 ft | 162 kts | 18° |
| 2026-04-30 22:17 | 54.51289 | 25.20163 | 2711 ft | 160 kts | 19° |
| 2026-04-30 22:17 | 54.53365 | 25.21594 | 2569 ft | 162 kts | 19° |
| 2026-04-30 22:18 | 54.54372 | 25.22296 | 2375 ft | 150 kts | 19° |
| 2026-04-30 22:18 | 54.56219 | 25.23578 | 1983 ft | 141 kts | 17° |
| 2026-04-30 22:19 | 54.58025 | 25.24837 | 1576 ft | 140 kts | 20° |
| 2026-04-30 22:19 | 54.58943 | 25.25475 | 1400 ft | 144 kts | 19° |
| 2026-04-30 22:19 | 54.60851 | 25.26797 | 987 ft | 148 kts | 21° |
| 2026-04-30 22:20 | 54.61799 | 25.27456 | 772 ft | 147 kts | 21° |
| 2026-04-30 22:20 | 54.63521 | 25.28655 | 615 ft | 92 kts | 22° |
| 2026-04-30 22:20 | 54.63980 | 25.28968 | 641 ft | 53 kts | 22° |
| 2026-04-30 22:21 | 54.64258 | 25.29160 | 653 ft | 36 kts | 22° |
| 2026-04-30 22:21 | 54.64430 | 25.29267 | 657 ft | 16 kts | 358° |
| 2026-04-30 22:21 | 54.64492 | 25.29149 | 656 ft | 13 kts | 295° |
| 2026-04-30 22:21 | 54.64529 | 25.29012 | 659 ft | 12 kts | 295° |
| 2026-04-30 22:22 | 54.64558 | 25.28875 | 658 ft | 12 kts | 271° |
| 2026-04-30 22:22 | 54.64544 | 25.28723 | 655 ft | 14 kts | 258° |
| 2026-04-30 22:22 | 54.64503 | 25.28604 | 650 ft | 11 kts | 198° |
| 2026-04-30 22:22 | 54.64437 | 25.28636 | 650 ft | 9 kts | 166° |
| 2026-04-30 22:23 | 54.64375 | 25.28652 | 649 ft | 9 kts | 174° |
| 2026-04-30 22:23 | 54.64317 | 25.28620 | 647 ft | 11 kts | 255° |
| 2026-04-30 22:23 | 54.64330 | 25.28553 | 645 ft | 3 kts | 355° |
| 2026-04-30 22:23 | 54.64346 | 25.28551 | 644 ft | 3 kts | 357° |
| 2026-04-30 22:24 | 54.64366 | 25.28549 | 645 ft | 0 kts | 357° |